createdAt,value
2023-04-27T00:01:20.639Z,100.00
2023-04-27T00:06:23.413Z,100.00
2023-04-27T00:11:26.409Z,100.00
2023-04-27T00:16:30.801Z,100.00
2023-04-27T00:21:33.574Z,100.00
2023-04-27T00:26:36.314Z,100.00
2023-04-27T00:31:40.523Z,100.00
2023-04-27T00:36:43.409Z,100.00
2023-04-27T00:41:46.158Z,100.00
2023-04-27T00:46:50.471Z,100.00
2023-04-27T00:51:53.255Z,100.00
2023-04-27T00:56:59.477Z,100.00
2023-04-27T01:02:03.864Z,100.00
2023-04-27T01:07:06.752Z,100.00
2023-04-27T01:12:09.520Z,100.00
2023-04-27T01:17:14.112Z,100.00
2023-04-27T01:22:16.878Z,100.00
2023-04-27T01:27:21.011Z,100.00
2023-04-27T01:32:23.889Z,100.00
2023-04-27T01:37:28.244Z,100.00
2023-04-27T01:42:32.369Z,100.00
2023-04-27T01:47:36.269Z,100.00
2023-04-27T01:52:39.099Z,100.00
2023-04-27T01:57:43.263Z,100.00
2023-04-27T02:02:46.493Z,100.00
2023-04-27T02:07:49.950Z,100.00
2023-04-27T02:12:54.127Z,100.00
2023-04-27T02:17:57.372Z,100.00
2023-04-27T02:23:01.026Z,100.00
2023-04-27T02:28:05.628Z,100.00
2023-04-27T02:33:09.183Z,100.00
2023-04-27T02:38:13.543Z,100.00
2023-04-27T02:43:17.648Z,100.00
2023-04-27T02:48:20.460Z,100.00
2023-04-27T02:53:23.288Z,100.00
2023-04-27T02:58:27.484Z,100.00
2023-04-27T03:03:30.212Z,100.00
2023-04-27T03:08:33.170Z,100.00
2023-04-27T03:13:41.960Z,100.00
2023-04-27T03:18:44.795Z,100.00
2023-04-27T03:23:47.556Z,100.00
2023-04-27T03:28:51.700Z,100.00
2023-04-27T03:33:54.632Z,100.00
2023-04-27T03:38:58.432Z,100.00
2023-04-27T03:44:03.182Z,100.00
2023-04-27T03:49:06.336Z,100.00
2023-04-27T03:54:10.061Z,100.00
2023-04-27T03:59:14.672Z,100.00
2023-04-27T04:04:24.930Z,100.00
2023-04-27T04:09:27.908Z,100.00
2023-04-27T04:14:32.504Z,100.00
2023-04-27T04:19:35.823Z,100.00
2023-04-27T04:24:40.100Z,100.00
2023-04-27T04:29:44.271Z,100.00
2023-04-27T04:34:51.360Z,100.00
2023-04-27T04:39:56.271Z,100.00
2023-04-27T04:45:02.343Z,100.00
2023-04-27T04:50:07.147Z,100.00
2023-04-27T04:55:11.598Z,100.00
2023-04-27T05:00:16.780Z,100.00
2023-04-27T05:05:21.493Z,100.00
2023-04-27T05:10:24.485Z,100.00
2023-04-27T05:15:29.291Z,100.00
2023-04-27T05:20:32.532Z,100.00
2023-04-27T05:25:41.327Z,100.00
2023-04-27T05:30:46.289Z,100.00
2023-04-27T05:35:49.902Z,100.00
2023-04-27T05:40:56.315Z,100.00
2023-04-27T05:46:00.369Z,100.00
2023-04-27T05:51:04.390Z,100.00
2023-04-27T05:56:10.434Z,100.00
2023-04-27T06:01:16.417Z,100.00
2023-04-27T06:06:20.389Z,100.00
2023-04-27T06:11:24.224Z,97.85
2023-04-27T06:16:29.406Z,95.83
2023-04-27T06:21:34.101Z,95.63
2023-04-27T06:26:37.010Z,90.43
2023-04-27T06:31:42.928Z,89.00
2023-04-27T06:36:45.782Z,78.44
2023-04-27T06:41:50.399Z,76.91
2023-04-27T06:46:56.291Z,72.29
2023-04-27T06:51:59.071Z,73.29
2023-04-27T06:57:03.278Z,70.94
2023-04-27T07:02:09.363Z,66.68
2023-04-27T07:07:12.374Z,68.55
2023-04-27T07:12:15.148Z,66.58
2023-04-27T07:17:19.484Z,67.41
2023-04-27T07:22:24.575Z,63.52
2023-04-27T07:27:30.155Z,62.77
2023-04-27T07:32:34.432Z,63.90
2023-04-27T07:37:38.429Z,65.22
2023-04-27T07:42:41.357Z,64.71
2023-04-27T07:47:46.469Z,58.99
2023-04-27T07:52:49.262Z,58.67
2023-04-27T07:57:54.986Z,59.23
2023-04-27T08:02:59.712Z,58.36
2023-04-27T08:08:02.972Z,55.83
2023-04-27T08:13:09.715Z,57.56
2023-04-27T08:18:16.511Z,57.16
2023-04-27T08:23:20.486Z,59.84
2023-04-27T08:28:24.509Z,57.93
2023-04-27T08:33:32.410Z,53.81
2023-04-27T08:38:36.497Z,54.78
2023-04-27T08:43:39.176Z,55.76
2023-04-27T08:48:43.230Z,55.15
2023-04-27T08:53:51.554Z,56.20
2023-04-27T08:58:57.367Z,53.90
2023-04-27T09:04:03.114Z,52.50
2023-04-27T09:09:07.206Z,52.41
2023-04-27T09:14:18.428Z,52.59
2023-04-27T09:19:27.386Z,50.65
2023-04-27T09:24:31.367Z,49.69
2023-04-27T09:29:36.183Z,51.34
2023-04-27T09:34:41.904Z,49.94
2023-04-27T09:39:47.382Z,49.93
2023-04-27T09:44:54.323Z,51.11
2023-04-27T09:50:01.566Z,49.33
2023-04-27T09:55:06.968Z,50.30
2023-04-27T10:00:41.036Z,51.11
2023-04-27T10:06:13.576Z,49.35
2023-04-27T10:11:19.151Z,49.24
2023-04-27T10:16:24.511Z,49.21
2023-04-27T10:21:28.594Z,47.88
2023-04-27T10:26:33.484Z,47.59
2023-04-27T10:31:37.598Z,47.88
2023-04-27T10:36:42.212Z,46.12
2023-04-27T10:41:53.977Z,46.38
2023-04-27T10:47:00.667Z,47.80
2023-04-27T10:52:07.337Z,46.18
2023-04-27T10:57:13.567Z,45.78
2023-04-27T11:02:17.768Z,47.16
2023-04-27T11:07:26.709Z,44.49
2023-04-27T11:12:33.466Z,44.78
2023-04-27T11:17:38.361Z,46.16
2023-04-27T11:22:46.093Z,44.82
2023-04-27T11:27:50.511Z,45.08
2023-04-27T11:32:54.816Z,44.05
2023-04-27T11:37:59.479Z,43.10
2023-04-27T11:43:04.414Z,42.67
2023-04-27T11:48:07.734Z,43.30
2023-04-27T11:53:11.932Z,43.37
2023-04-27T11:58:18.801Z,41.99
2023-04-27T12:03:23.017Z,42.23
2023-04-27T12:08:26.332Z,40.53
2023-04-27T12:13:30.421Z,40.67
2023-04-27T12:18:33.487Z,38.37
2023-04-27T12:23:38.311Z,38.98
2023-04-27T12:28:42.507Z,39.14
2023-04-27T12:33:45.551Z,38.76
2023-04-27T12:38:49.717Z,37.18
2023-04-27T12:43:53.771Z,37.77
2023-04-27T12:48:57.322Z,37.37
2023-04-27T12:54:01.057Z,39.03
2023-04-27T12:59:06.684Z,38.24
2023-04-27T13:04:11.350Z,39.39
2023-04-27T13:09:14.337Z,38.08
2023-04-27T13:14:18.424Z,36.88
2023-04-27T13:19:21.560Z,35.89
2023-04-27T13:24:24.840Z,35.47
2023-04-27T13:29:31.103Z,33.99
2023-04-27T13:34:34.833Z,34.43
2023-04-27T13:39:38.298Z,35.83
2023-04-27T13:44:43.086Z,37.74
2023-04-27T13:49:46.739Z,34.68
2023-04-27T13:54:51.467Z,33.47
2023-04-27T13:59:56.649Z,32.52
2023-04-27T14:04:59.449Z,32.56
2023-04-27T14:10:02.831Z,34.77
2023-04-27T14:15:07.794Z,35.78
2023-04-27T14:20:12.359Z,38.35
2023-04-27T14:25:15.824Z,38.91
2023-04-27T14:30:22.930Z,39.92
2023-04-27T14:35:27.439Z,41.10
2023-04-27T14:40:30.397Z,38.63
2023-04-27T14:45:47.850Z,41.32
2023-04-27T14:50:53.857Z,39.41
2023-04-27T14:55:56.653Z,41.04
2023-04-27T15:01:02.775Z,39.81
2023-04-27T15:06:06.879Z,39.57
2023-04-27T15:11:09.943Z,40.20
2023-04-27T15:16:14.021Z,40.64
2023-04-27T15:21:16.784Z,35.33
2023-04-27T15:26:19.598Z,32.85
2023-04-27T15:31:26.130Z,31.26
2023-04-27T15:36:31.714Z,31.65
2023-04-27T15:41:35.705Z,32.90
2023-04-27T15:46:39.938Z,31.15
2023-04-27T15:51:42.752Z,29.34
2023-04-27T15:56:45.912Z,26.35
2023-04-27T16:01:50.879Z,28.23
2023-04-27T16:06:54.450Z,26.84
2023-04-27T16:11:59.077Z,26.12
2023-04-27T16:17:03.184Z,26.41
2023-04-27T16:22:06.958Z,30.83
2023-04-27T16:27:11.554Z,28.37
2023-04-27T16:32:17.936Z,27.27
2023-04-27T16:37:20.840Z,27.01
2023-04-27T16:42:23.539Z,33.60
2023-04-27T16:47:27.950Z,36.91
2023-04-27T16:52:30.975Z,37.95
2023-04-27T16:57:33.769Z,40.51
2023-04-27T17:02:41.246Z,40.41
2023-04-27T17:07:45.999Z,42.60
2023-04-27T17:12:49.899Z,42.75
2023-04-27T17:17:54.698Z,45.00
2023-04-27T17:22:59.026Z,45.73
2023-04-27T17:28:03.781Z,47.60
2023-04-27T17:33:07.933Z,49.03
2023-04-27T17:38:12.161Z,49.71
2023-04-27T17:43:16.228Z,49.94
2023-04-27T17:48:21.056Z,50.17
2023-04-27T17:53:23.875Z,51.24
2023-04-27T17:58:28.090Z,51.72
2023-04-27T18:03:32.402Z,52.03
2023-04-27T18:08:38.094Z,53.12
2023-04-27T18:13:40.997Z,52.76
2023-04-27T18:18:47.208Z,53.71
2023-04-27T18:23:51.068Z,53.84
2023-04-27T18:28:54.646Z,54.56
2023-04-27T18:34:00.002Z,54.89
2023-04-27T18:39:03.186Z,56.20
2023-04-27T18:44:06.463Z,56.57
2023-04-27T18:49:11.042Z,56.98
2023-04-27T18:54:13.792Z,56.89
2023-04-27T18:59:16.548Z,57.69
2023-04-27T19:04:20.938Z,58.26
2023-04-27T19:09:24.112Z,60.35
2023-04-27T19:14:26.856Z,62.00
2023-04-27T19:19:33.323Z,61.37
2023-04-27T19:24:37.846Z,63.30
2023-04-27T19:29:52.117Z,65.88
2023-04-27T19:34:58.078Z,67.31
2023-04-27T19:40:00.935Z,64.33
2023-04-27T19:45:04.821Z,65.81
2023-04-27T19:50:09.551Z,67.26
2023-04-27T19:55:12.590Z,69.39
2023-04-27T20:00:16.097Z,70.87
2023-04-27T20:05:20.403Z,71.35
2023-04-27T20:10:23.820Z,71.91
2023-04-27T20:15:26.813Z,72.15
2023-04-27T20:20:31.128Z,70.76
2023-04-27T20:25:33.992Z,71.53
2023-04-27T20:30:36.874Z,71.09
2023-04-27T20:35:42.184Z,70.84
2023-04-27T20:40:45.926Z,72.68
2023-04-27T20:45:48.714Z,70.36
2023-04-27T20:50:52.994Z,71.96
2023-04-27T20:55:55.977Z,73.84
2023-04-27T21:00:59.165Z,74.78
2023-04-27T21:06:04.245Z,74.83
2023-04-27T21:11:07.928Z,76.00
2023-04-27T21:16:11.427Z,74.58
2023-04-27T21:21:15.637Z,76.87
2023-04-27T21:26:19.810Z,75.44
2023-04-27T21:31:22.823Z,75.05
2023-04-27T21:36:27.064Z,75.49
2023-04-27T21:41:29.838Z,74.71
2023-04-27T21:46:32.689Z,73.98
2023-04-27T21:51:36.909Z,74.52
2023-04-27T21:56:39.676Z,74.44
2023-04-27T22:01:42.892Z,76.27
2023-04-27T22:06:47.375Z,73.61
2023-04-27T22:11:50.135Z,74.13
2023-04-27T22:16:53.087Z,72.51
2023-04-27T22:21:58.297Z,73.10
2023-04-27T22:27:01.995Z,74.35
2023-04-27T22:32:05.076Z,72.31
2023-04-27T22:37:09.549Z,72.80
2023-04-27T22:42:12.348Z,74.34
2023-04-27T22:47:15.177Z,73.99
2023-04-27T22:52:20.069Z,72.90
2023-04-27T22:57:22.768Z,73.51
2023-04-27T23:02:25.598Z,73.72
2023-04-27T23:07:29.994Z,79.84
2023-04-27T23:12:33.132Z,77.18
2023-04-27T23:17:36.025Z,74.05
2023-04-27T23:22:43.623Z,74.33
2023-04-27T23:27:46.394Z,76.10
2023-04-27T23:32:49.281Z,75.55
2023-04-27T23:37:53.438Z,76.53
2023-04-27T23:42:56.224Z,79.99
2023-04-27T23:48:00.171Z,81.91
2023-04-27T23:53:04.601Z,80.41
2023-04-27T23:58:07.288Z,78.91
